EZY97CB EHAM-EGCC
Flight info
| Callsign | EZY97CB |
|---|---|
| Flight time | N/A |
| Altitude | 34000 |
| Route | BERGI L60 OTBED |
| Aircraft | A320/M-SDE3FGHIRWY/LB1 |
Departure
| Time | 2026-05-04 17:26 |
|---|---|
| Airport | Amsterdam Airport Schiphol (EHAM) |
Arrival
| Time | N/A |
|---|---|
| Airport | Manchester Airport (EGCC) |
| Time | Latitude | Longitude | Altitude | Speed | Heading |
|---|---|---|---|---|---|
| 2026-05-04 16:42 | 52.30942 | 4.75245 | -3 ft | 0 kts | 149° |
| 2026-05-04 17:09 | 52.30944 | 4.75243 | -3 ft | 2 kts | 149° |
| 2026-05-04 17:10 | 52.30978 | 4.75185 | -2 ft | 4 kts | 97° |
| 2026-05-04 17:10 | 52.30975 | 4.75151 | -2 ft | 1 kts | 62° |
| 2026-05-04 17:14 | 52.30976 | 4.75154 | -3 ft | 2 kts | 62° |
| 2026-05-04 17:15 | 52.30977 | 4.75157 | -3 ft | 1 kts | 63° |
| 2026-05-04 17:15 | 52.31069 | 4.75404 | -1 ft | 15 kts | 58° |
| 2026-05-04 17:16 | 52.31244 | 4.75487 | 5 ft | 13 kts | 357° |
| 2026-05-04 17:16 | 52.31422 | 4.75312 | 11 ft | 15 kts | 267° |
| 2026-05-04 17:17 | 52.31417 | 4.75120 | 8 ft | 17 kts | 267° |
| 2026-05-04 17:17 | 52.31400 | 4.74567 | 12 ft | 17 kts | 266° |
| 2026-05-04 17:18 | 52.31394 | 4.74377 | 11 ft | 16 kts | 266° |
| 2026-05-04 17:18 | 52.31568 | 4.74296 | 15 ft | 16 kts | 3° |
| 2026-05-04 17:19 | 52.31807 | 4.74319 | 11 ft | 21 kts | 5° |
| 2026-05-04 17:19 | 52.32009 | 4.74316 | 10 ft | 8 kts | 327° |
| 2026-05-04 17:20 | 52.32035 | 4.74122 | 12 ft | 12 kts | 272° |
| 2026-05-04 17:20 | 52.32038 | 4.73966 | 15 ft | 3 kts | 271° |
| 2026-05-04 17:20 | 52.32040 | 4.73841 | 18 ft | 20 kts | 271° |
| 2026-05-04 17:21 | 52.32099 | 4.73344 | 10 ft | 26 kts | 310° |
| 2026-05-04 17:21 | 52.32410 | 4.72908 | -2 ft | 31 kts | 319° |
| 2026-05-04 17:22 | 52.32573 | 4.72675 | -3 ft | 31 kts | 320° |
| 2026-05-04 17:22 | 52.32723 | 4.72441 | -8 ft | 31 kts | 311° |
| 2026-05-04 17:23 | 52.32986 | 4.71696 | 4 ft | 24 kts | 311° |
| 2026-05-04 17:23 | 52.33070 | 4.71500 | 11 ft | 18 kts | 289° |
| 2026-05-04 17:23 | 52.32952 | 4.71227 | 14 ft | 13 kts | 219° |
| 2026-05-04 17:24 | 52.32876 | 4.71099 | 14 ft | 15 kts | 244° |
| 2026-05-04 17:24 | 52.33060 | 4.70908 | 13 ft | 33 kts | 5° |
| 2026-05-04 17:25 | 52.33530 | 4.70947 | 18 ft | 99 kts | 2° |
| 2026-05-04 17:25 | 52.35488 | 4.71126 | 575 ft | 157 kts | 2° |
| 2026-05-04 17:26 | 52.37811 | 4.71292 | 1585 ft | 188 kts | 4° |
| 2026-05-04 17:26 | 52.42503 | 4.71573 | 2989 ft | 253 kts | 348° |
| 2026-05-04 17:27 | 52.45381 | 4.68244 | 4827 ft | 259 kts | 313° |
| 2026-05-04 17:27 | 52.47957 | 4.63980 | 6560 ft | 270 kts | 313° |
| 2026-05-04 17:28 | 52.50169 | 4.60341 | 8078 ft | 273 kts | 312° |
| 2026-05-04 17:29 | 52.54890 | 4.54725 | 10524 ft | 293 kts | 329° |
| 2026-05-04 17:29 | 52.60682 | 4.49310 | 12082 ft | 331 kts | 328° |
| 2026-05-04 17:30 | 52.66753 | 4.43601 | 14317 ft | 342 kts | 328° |
| 2026-05-04 17:31 | 52.70928 | 4.39643 | 15619 ft | 350 kts | 328° |
| 2026-05-04 17:31 | 52.75815 | 4.30883 | 17561 ft | 354 kts | 293° |
| 2026-05-04 17:32 | 52.77353 | 4.23633 | 18754 ft | 357 kts | 287° |
| 2026-05-04 17:33 | 52.79738 | 4.11830 | 20551 ft | 364 kts | 287° |
| 2026-05-04 17:33 | 52.80538 | 4.07854 | 21154 ft | 366 kts | 286° |
| 2026-05-04 17:34 | 52.82945 | 3.95769 | 22957 ft | 372 kts | 285° |
| 2026-05-04 17:34 | 52.83755 | 3.91686 | 23537 ft | 374 kts | 285° |
| 2026-05-04 17:35 | 52.86203 | 3.79348 | 24881 ft | 382 kts | 285° |
| 2026-05-04 17:35 | 52.87868 | 3.70913 | 25683 ft | 389 kts | 284° |
| 2026-05-04 17:35 | 52.88709 | 3.66635 | 26081 ft | 392 kts | 284° |
| 2026-05-04 17:36 | 52.89552 | 3.62332 | 26481 ft | 394 kts | 284° |
| 2026-05-04 17:36 | 52.90398 | 3.57997 | 26863 ft | 397 kts | 284° |
| 2026-05-04 17:36 | 52.91247 | 3.53630 | 27260 ft | 400 kts | 284° |
| 2026-05-04 17:36 | 52.92103 | 3.49230 | 27615 ft | 403 kts | 284° |
| 2026-05-04 17:37 | 52.92968 | 3.44781 | 27976 ft | 406 kts | 284° |
| 2026-05-04 17:37 | 52.93834 | 3.40310 | 28334 ft | 408 kts | 283° |
| 2026-05-04 17:37 | 52.94702 | 3.35811 | 28681 ft | 411 kts | 283° |
| 2026-05-04 17:37 | 52.95573 | 3.31279 | 29023 ft | 414 kts | 283° |
| 2026-05-04 17:38 | 52.96449 | 3.26710 | 29366 ft | 416 kts | 283° |
| 2026-05-04 17:38 | 52.97329 | 3.22127 | 29729 ft | 418 kts | 283° |
| 2026-05-04 17:38 | 52.98211 | 3.17517 | 30059 ft | 420 kts | 283° |
| 2026-05-04 17:38 | 52.99097 | 3.12881 | 30333 ft | 423 kts | 283° |
| 2026-05-04 17:39 | 53.00868 | 3.03582 | 30867 ft | 426 kts | 284° |
| 2026-05-04 17:39 | 53.01762 | 2.98871 | 31093 ft | 429 kts | 284° |
| 2026-05-04 17:39 | 53.02660 | 2.94132 | 31335 ft | 431 kts | 284° |
| 2026-05-04 17:40 | 53.03563 | 2.89356 | 31595 ft | 433 kts | 284° |
| 2026-05-04 17:40 | 53.04460 | 2.84600 | 31946 ft | 432 kts | 284° |
| 2026-05-04 17:40 | 53.05352 | 2.79838 | 32296 ft | 431 kts | 284° |
| 2026-05-04 17:40 | 53.06240 | 2.75080 | 32639 ft | 430 kts | 285° |
| 2026-05-04 17:41 | 53.07124 | 2.70330 | 32983 ft | 430 kts | 285° |
| 2026-05-04 17:41 | 53.08008 | 2.65584 | 33321 ft | 429 kts | 285° |
| 2026-05-04 17:41 | 53.08887 | 2.60852 | 33666 ft | 429 kts | 285° |
| 2026-05-04 17:41 | 53.09764 | 2.56106 | 33981 ft | 429 kts | 285° |
| 2026-05-04 17:42 | 53.11179 | 2.46647 | 34046 ft | 416 kts | 276° |
| 2026-05-04 17:42 | 53.11943 | 2.37190 | 34054 ft | 414 kts | 276° |
| 2026-05-04 17:43 | 53.12724 | 2.27693 | 34051 ft | 414 kts | 276° |
| 2026-05-04 17:43 | 53.13496 | 2.18196 | 34051 ft | 414 kts | 276° |
| 2026-05-04 17:44 | 53.14255 | 2.08700 | 34054 ft | 414 kts | 276° |
| 2026-05-04 17:44 | 53.15002 | 1.99200 | 34049 ft | 414 kts | 276° |
| 2026-05-04 17:45 | 53.15752 | 1.89668 | 34035 ft | 415 kts | 276° |
| 2026-05-04 17:45 | 53.16494 | 1.80119 | 34046 ft | 416 kts | 276° |
| 2026-05-04 17:46 | 53.17228 | 1.70558 | 34041 ft | 416 kts | 276° |
| 2026-05-04 17:46 | 53.17957 | 1.60982 | 34034 ft | 416 kts | 276° |
| 2026-05-04 17:47 | 53.18677 | 1.51401 | 34039 ft | 416 kts | 276° |
| 2026-05-04 17:47 | 53.19388 | 1.41811 | 34042 ft | 418 kts | 276° |
| 2026-05-04 17:48 | 53.20097 | 1.32240 | 34019 ft | 420 kts | 276° |
| 2026-05-04 17:48 | 53.20336 | 1.28973 | 33885 ft | 419 kts | 276° |
| 2026-05-04 17:48 | 53.20790 | 1.22693 | 33588 ft | 405 kts | 276° |
| 2026-05-04 17:49 | 53.21119 | 1.18087 | 33370 ft | 395 kts | 276° |
| 2026-05-04 17:49 | 53.21436 | 1.13591 | 33178 ft | 388 kts | 276° |
| 2026-05-04 17:49 | 53.21752 | 1.09136 | 32993 ft | 386 kts | 276° |
| 2026-05-04 17:49 | 53.22067 | 1.04693 | 32800 ft | 385 kts | 276° |
| 2026-05-04 17:50 | 53.22379 | 1.00249 | 32616 ft | 386 kts | 276° |
| 2026-05-04 17:50 | 53.22694 | 0.95783 | 32431 ft | 388 kts | 276° |
| 2026-05-04 17:50 | 53.23006 | 0.91307 | 32248 ft | 389 kts | 276° |
| 2026-05-04 17:50 | 53.23318 | 0.86826 | 32065 ft | 389 kts | 276° |
| 2026-05-04 17:51 | 53.23630 | 0.82329 | 31884 ft | 389 kts | 276° |
| 2026-05-04 17:51 | 53.23941 | 0.77838 | 31702 ft | 390 kts | 276° |
| 2026-05-04 17:51 | 53.24249 | 0.73342 | 31523 ft | 389 kts | 276° |
| 2026-05-04 17:51 | 53.24556 | 0.68847 | 31344 ft | 390 kts | 276° |
| 2026-05-04 17:52 | 53.24860 | 0.64359 | 31168 ft | 390 kts | 276° |
| 2026-05-04 17:52 | 53.25167 | 0.59821 | 30993 ft | 394 kts | 276° |
| 2026-05-04 17:52 | 53.25470 | 0.55288 | 30805 ft | 402 kts | 277° |
| 2026-05-04 17:52 | 53.25777 | 0.50631 | 30483 ft | 403 kts | 277° |
| 2026-05-04 17:53 | 53.26080 | 0.45965 | 30165 ft | 405 kts | 277° |
| 2026-05-04 17:53 | 53.26380 | 0.41281 | 29797 ft | 404 kts | 277° |
| 2026-05-04 17:53 | 53.26680 | 0.36626 | 29423 ft | 402 kts | 277° |
| 2026-05-04 17:53 | 53.26975 | 0.32001 | 29053 ft | 399 kts | 277° |
| 2026-05-04 17:54 | 53.27267 | 0.27399 | 28689 ft | 396 kts | 277° |
| 2026-05-04 17:54 | 53.27558 | 0.22841 | 28334 ft | 393 kts | 277° |
| 2026-05-04 17:54 | 53.27846 | 0.18316 | 27981 ft | 390 kts | 276° |
| 2026-05-04 17:54 | 53.28129 | 0.13828 | 27632 ft | 387 kts | 276° |
| 2026-05-04 17:55 | 53.28410 | 0.09362 | 27290 ft | 384 kts | 276° |
| 2026-05-04 17:55 | 53.28771 | 0.04963 | 26945 ft | 381 kts | 283° |
| 2026-05-04 17:55 | 53.29547 | 0.00768 | 26611 ft | 377 kts | 294° |
| 2026-05-04 17:55 | 53.30672 | -0.03185 | 26245 ft | 375 kts | 297° |
| 2026-05-04 17:56 | 53.31808 | -0.07041 | 25871 ft | 373 kts | 297° |
| 2026-05-04 17:56 | 53.32945 | -0.10925 | 25499 ft | 371 kts | 296° |
| 2026-05-04 17:56 | 53.34071 | -0.14784 | 25142 ft | 368 kts | 296° |
| 2026-05-04 17:56 | 53.35192 | -0.18632 | 24827 ft | 366 kts | 296° |
| 2026-05-04 17:57 | 53.36303 | -0.22451 | 24517 ft | 363 kts | 296° |
| 2026-05-04 17:57 | 53.37404 | -0.26245 | 24207 ft | 361 kts | 296° |
| 2026-05-04 17:57 | 53.38497 | -0.30019 | 23900 ft | 359 kts | 296° |
| 2026-05-04 17:57 | 53.39581 | -0.33768 | 23594 ft | 357 kts | 295° |
| 2026-05-04 17:58 | 53.40660 | -0.37494 | 23233 ft | 354 kts | 295° |
| 2026-05-04 17:58 | 53.41733 | -0.41197 | 22875 ft | 352 kts | 295° |
| 2026-05-04 17:58 | 53.42795 | -0.44876 | 22524 ft | 349 kts | 295° |
| 2026-05-04 17:58 | 53.43848 | -0.48537 | 22173 ft | 347 kts | 295° |
| 2026-05-04 17:59 | 53.44888 | -0.52172 | 21821 ft | 344 kts | 295° |
| 2026-05-04 17:59 | 53.45907 | -0.55738 | 21484 ft | 342 kts | 295° |
| 2026-05-04 17:59 | 53.47955 | -0.62898 | 20818 ft | 338 kts | 295° |
| 2026-05-04 18:00 | 53.48968 | -0.66440 | 20488 ft | 336 kts | 295° |
| 2026-05-04 18:00 | 53.49974 | -0.69967 | 20194 ft | 333 kts | 294° |
| 2026-05-04 18:00 | 53.50971 | -0.73471 | 19923 ft | 332 kts | 294° |
| 2026-05-04 18:00 | 53.51963 | -0.76964 | 19646 ft | 330 kts | 294° |
| 2026-05-04 18:01 | 53.52948 | -0.80432 | 19370 ft | 328 kts | 294° |
| 2026-05-04 18:01 | 53.53929 | -0.83888 | 19118 ft | 326 kts | 294° |
| 2026-05-04 18:01 | 53.54904 | -0.87323 | 18850 ft | 325 kts | 294° |
| 2026-05-04 18:02 | 53.56830 | -0.94149 | 18322 ft | 321 kts | 294° |
| 2026-05-04 18:02 | 53.57769 | -0.97492 | 18082 ft | 319 kts | 294° |
| 2026-05-04 18:02 | 53.58716 | -1.00871 | 18040 ft | 319 kts | 294° |
| 2026-05-04 18:02 | 53.59662 | -1.04256 | 17847 ft | 321 kts | 294° |
| 2026-05-04 18:03 | 53.60596 | -1.07679 | 17356 ft | 321 kts | 290° |
| 2026-05-04 18:03 | 53.61218 | -1.11285 | 16877 ft | 321 kts | 282° |
| 2026-05-04 18:03 | 53.61720 | -1.14950 | 16385 ft | 322 kts | 282° |
| 2026-05-04 18:03 | 53.62224 | -1.18636 | 15878 ft | 324 kts | 282° |
| 2026-05-04 18:04 | 53.62732 | -1.22348 | 15371 ft | 326 kts | 282° |
| 2026-05-04 18:04 | 53.63239 | -1.26056 | 14826 ft | 322 kts | 282° |
| 2026-05-04 18:04 | 53.64218 | -1.33243 | 13757 ft | 308 kts | 282° |
| 2026-05-04 18:05 | 53.64689 | -1.36730 | 13157 ft | 302 kts | 282° |
| 2026-05-04 18:05 | 53.65148 | -1.40148 | 12554 ft | 297 kts | 282° |
| 2026-05-04 18:05 | 53.65600 | -1.43510 | 11963 ft | 292 kts | 282° |
| 2026-05-04 18:05 | 53.66047 | -1.46835 | 11379 ft | 289 kts | 282° |
| 2026-05-04 18:06 | 53.66924 | -1.53371 | 10155 ft | 284 kts | 282° |
| 2026-05-04 18:06 | 53.67356 | -1.56614 | 9451 ft | 283 kts | 282° |
| 2026-05-04 18:06 | 53.67781 | -1.59811 | 9098 ft | 276 kts | 282° |
| 2026-05-04 18:07 | 53.68200 | -1.62971 | 9032 ft | 277 kts | 282° |
| 2026-05-04 18:07 | 53.68618 | -1.66140 | 9034 ft | 277 kts | 282° |
| 2026-05-04 18:07 | 53.69027 | -1.69233 | 9019 ft | 262 kts | 282° |
| 2026-05-04 18:07 | 53.69260 | -1.72177 | 8722 ft | 257 kts | 265° |
| 2026-05-04 18:08 | 53.68703 | -1.74964 | 8246 ft | 251 kts | 236° |
| 2026-05-04 18:08 | 53.67412 | -1.76873 | 7738 ft | 248 kts | 207° |
| 2026-05-04 18:08 | 53.65826 | -1.77981 | 7242 ft | 246 kts | 201° |
| 2026-05-04 18:08 | 53.64218 | -1.78945 | 6753 ft | 245 kts | 200° |
| 2026-05-04 18:09 | 53.61029 | -1.80817 | 6041 ft | 242 kts | 200° |
| 2026-05-04 18:09 | 53.57852 | -1.82678 | 6025 ft | 243 kts | 200° |
| 2026-05-04 18:10 | 53.56348 | -1.83922 | 5824 ft | 239 kts | 221° |
| 2026-05-04 18:10 | 53.55237 | -1.85971 | 5652 ft | 237 kts | 233° |
| 2026-05-04 18:10 | 53.54211 | -1.88152 | 5450 ft | 237 kts | 233° |
| 2026-05-04 18:10 | 53.53186 | -1.90319 | 5223 ft | 236 kts | 233° |
| 2026-05-04 18:11 | 53.52161 | -1.92475 | 4996 ft | 236 kts | 233° |
| 2026-05-04 18:11 | 53.51137 | -1.94626 | 4766 ft | 235 kts | 233° |
| 2026-05-04 18:11 | 53.50117 | -1.96766 | 4627 ft | 235 kts | 233° |
| 2026-05-04 18:11 | 53.49099 | -1.98900 | 4365 ft | 233 kts | 233° |
| 2026-05-04 18:12 | 53.48096 | -2.00999 | 4055 ft | 226 kts | 233° |
| 2026-05-04 18:12 | 53.47135 | -2.03009 | 3761 ft | 216 kts | 233° |
| 2026-05-04 18:12 | 53.46214 | -2.04934 | 3479 ft | 208 kts | 233° |
| 2026-05-04 18:12 | 53.45327 | -2.06788 | 3196 ft | 197 kts | 232° |
| 2026-05-04 18:13 | 53.44520 | -2.08472 | 2976 ft | 178 kts | 234° |
| 2026-05-04 18:13 | 53.43758 | -2.10061 | 2714 ft | 169 kts | 233° |
| 2026-05-04 18:13 | 53.42324 | -2.13054 | 2265 ft | 163 kts | 234° |
| 2026-05-04 18:14 | 53.41613 | -2.14534 | 2038 ft | 163 kts | 235° |
| 2026-05-04 18:14 | 53.40907 | -2.16003 | 1827 ft | 161 kts | 235° |
| 2026-05-04 18:14 | 53.40200 | -2.17464 | 1609 ft | 161 kts | 235° |
| 2026-05-04 18:15 | 53.38703 | -2.20592 | 1135 ft | 176 kts | 232° |
| 2026-05-04 18:15 | 53.37109 | -2.23860 | 901 ft | 206 kts | 232° |
| 2026-05-04 18:15 | 53.36147 | -2.25845 | 1482 ft | 236 kts | 233° |
| 2026-05-04 18:16 | 53.35043 | -2.28178 | 1985 ft | 270 kts | 234° |
| 2026-05-04 18:16 | 53.33920 | -2.30589 | 2499 ft | 259 kts | 234° |
| 2026-05-04 18:16 | 53.32828 | -2.32961 | 2999 ft | 256 kts | 235° |
| 2026-05-04 18:17 | 53.31692 | -2.37494 | 3477 ft | 257 kts | 270° |
| 2026-05-04 18:17 | 53.32075 | -2.40373 | 3457 ft | 255 kts | 297° |
| 2026-05-04 18:17 | 53.34832 | -2.43739 | 3453 ft | 257 kts | 349° |
| 2026-05-04 18:18 | 53.36615 | -2.43983 | 3413 ft | 257 kts | 356° |
| 2026-05-04 18:18 | 53.38393 | -2.44136 | 3427 ft | 256 kts | 355° |
| 2026-05-04 18:18 | 53.40122 | -2.44334 | 3427 ft | 240 kts | 354° |
| 2026-05-04 18:18 | 53.41737 | -2.44521 | 3475 ft | 228 kts | 355° |
| 2026-05-04 18:19 | 53.44883 | -2.44840 | 3508 ft | 226 kts | 355° |
| 2026-05-04 18:19 | 53.46450 | -2.45004 | 3509 ft | 226 kts | 355° |
| 2026-05-04 18:19 | 53.48020 | -2.45156 | 3509 ft | 226 kts | 360° |
| 2026-05-04 18:20 | 53.49541 | -2.44626 | 3503 ft | 222 kts | 27° |
| 2026-05-04 18:20 | 53.50643 | -2.42938 | 3533 ft | 210 kts | 50° |
| 2026-05-04 18:20 | 53.51481 | -2.41056 | 3521 ft | 195 kts | 52° |
| 2026-05-04 18:20 | 53.52256 | -2.39218 | 3508 ft | 191 kts | 53° |
| 2026-05-04 18:21 | 53.53036 | -2.37343 | 3514 ft | 204 kts | 54° |
| 2026-05-04 18:21 | 53.53847 | -2.35405 | 3507 ft | 195 kts | 53° |
| 2026-05-04 18:21 | 53.54576 | -2.33609 | 3492 ft | 176 kts | 61° |
| 2026-05-04 18:21 | 53.54721 | -2.31693 | 3493 ft | 168 kts | 107° |
| 2026-05-04 18:22 | 53.54039 | -2.30119 | 3204 ft | 172 kts | 149° |
| 2026-05-04 18:22 | 53.52903 | -2.29747 | 2649 ft | 172 kts | 194° |
| 2026-05-04 18:22 | 53.51845 | -2.30738 | 2084 ft | 181 kts | 221° |
| 2026-05-04 18:22 | 53.50817 | -2.32110 | 1492 ft | 195 kts | 223° |
| 2026-05-04 18:23 | 53.49993 | -2.33210 | 1185 ft | 196 kts | 221° |